Time,TemperatureF,DewpointF,PressureIn,WindDirection,WindDirectionDegrees,WindSpeedMPH,WindSpeedGustMPH,Humidity,HourlyPrecipIn,Conditions,Clouds,dailyrainin,SoftwareType,DateUTC
2016-07-28 00:06:00,64.1,43.5,29.95,SW,217,0.0,0.0,47,0.00,,---,0.00,VWS V14.01,2016-07-28 07:06:00,
2016-07-28 00:16:00,63.8,43.2,29.92,SW,218,0.0,0.0,47,0.00,,---,0.00,VWS V14.01,2016-07-28 07:16:00,
2016-07-28 00:26:00,63.4,42.8,29.92,SW,218,0.0,0.0,47,0.00,,---,0.00,VWS V14.01,2016-07-28 07:26:00,
2016-07-28 00:36:00,63.1,42.6,29.92,SW,218,0.0,0.0,47,0.00,,---,0.00,VWS V14.01,2016-07-28 07:36:00,
2016-07-28 00:46:00,62.8,42.8,29.92,SW,219,0.0,0.0,48,0.00,,---,0.00,VWS V14.01,2016-07-28 07:46:00,
2016-07-28 00:56:00,62.4,42.5,29.92,SW,217,0.0,0.0,48,0.00,,---,0.00,VWS V14.01,2016-07-28 07:56:00,
2016-07-28 01:06:00,62.1,42.7,29.92,SW,217,0.0,0.0,49,0.00,,---,0.00,VWS V14.01,2016-07-28 08:06:00,
2016-07-28 01:16:00,61.7,42.4,29.90,SW,219,0.0,0.0,49,0.00,,---,0.00,VWS V14.01,2016-07-28 08:16:00,
2016-07-28 01:26:00,61.4,42.6,29.89,North,360,0.0,0.0,50,0.00,,---,0.00,VWS V14.01,2016-07-28 08:26:00,
2016-07-28 01:36:00,61.0,42.8,29.89,SW,218,0.0,0.0,51,0.00,,---,0.00,VWS V14.01,2016-07-28 08:36:00,
2016-07-28 01:46:00,60.7,42.5,29.89,SW,218,0.0,0.0,51,0.00,,---,0.00,VWS V14.01,2016-07-28 08:46:00,
2016-07-28 01:56:00,60.4,42.7,29.90,SW,218,0.0,0.0,52,0.00,,---,0.00,VWS V14.01,2016-07-28 08:56:00,
2016-07-28 02:06:00,60.2,43.0,29.89,SW,217,0.0,0.0,53,0.00,,---,0.00,VWS V14.01,2016-07-28 09:06:00,
2016-07-28 02:16:00,59.9,42.7,29.90,SW,218,0.0,0.0,53,0.00,,---,0.00,VWS V14.01,2016-07-28 09:16:00,
2016-07-28 02:26:00,59.6,42.5,29.90,SW,218,0.0,0.0,53,0.00,,---,0.00,VWS V14.01,2016-07-28 09:26:00,
2016-07-28 02:36:00,59.2,42.1,29.90,SW,219,0.0,0.0,53,0.00,,---,0.00,VWS V14.01,2016-07-28 09:36:00,
2016-07-28 02:46:00,59.0,41.4,29.90,SW,218,0.0,0.0,52,0.00,,---,0.00,VWS V14.01,2016-07-28 09:46:00,
2016-07-28 02:56:00,58.9,41.3,29.90,SW,217,0.0,0.0,52,0.00,,---,0.00,VWS V14.01,2016-07-28 09:56:00,
2016-07-28 03:06:00,58.4,40.9,29.91,SW,217,0.0,0.0,52,0.00,,---,0.00,VWS V14.01,2016-07-28 10:06:00,
2016-07-28 03:16:00,58.1,40.1,29.88,SW,219,0.0,0.0,51,0.00,,---,0.00,VWS V14.01,2016-07-28 10:16:00,
2016-07-28 03:26:00,57.9,39.9,29.88,SW,218,0.0,0.0,51,0.00,,---,0.00,VWS V14.01,2016-07-28 10:26:00,
2016-07-28 03:36:00,57.7,40.7,29.88,North,360,0.0,0.0,53,0.00,,---,0.00,VWS V14.01,2016-07-28 10:36:00,
2016-07-28 03:46:00,57.6,41.1,29.88,SW,218,0.0,0.0,54,0.00,,---,0.00,VWS V14.01,2016-07-28 10:46:00,
2016-07-28 03:56:00,57.6,42.0,29.88,SW,218,0.0,0.0,56,0.00,,---,0.00,VWS V14.01,2016-07-28 10:56:00,
2016-07-28 04:06:00,57.4,41.8,29.90,North,360,0.0,0.0,56,0.00,,---,0.00,VWS V14.01,2016-07-28 11:06:00,
2016-07-28 04:16:00,57.2,42.6,29.90,SW,218,0.0,0.0,58,0.00,,---,0.00,VWS V14.01,2016-07-28 11:16:00,
2016-07-28 04:26:00,57.0,43.3,29.91,SW,217,0.0,0.0,60,0.00,,---,0.00,VWS V14.01,2016-07-28 11:26:00,
2016-07-28 04:36:00,56.8,43.5,29.91,SW,219,0.0,0.0,61,0.00,,---,0.00,VWS V14.01,2016-07-28 11:36:00,
2016-07-28 04:46:00,56.7,43.8,29.91,North,360,0.0,0.0,62,0.00,,---,0.00,VWS V14.01,2016-07-28 11:46:00,
2016-07-28 04:56:00,56.5,43.2,29.91,SW,218,0.0,0.0,61,0.00,,---,0.00,VWS V14.01,2016-07-28 11:56:00,
2016-07-28 05:06:00,56.3,43.5,29.91,SW,218,0.0,0.0,62,0.00,,---,0.00,VWS V14.01,2016-07-28 12:06:00,
2016-07-28 05:16:00,56.2,43.4,29.92,SW,219,0.0,0.0,62,0.00,,---,0.00,VWS V14.01,2016-07-28 12:16:00,
2016-07-28 05:26:00,56.0,43.2,29.92,SW,218,0.0,0.0,62,0.00,,---,0.00,VWS V14.01,2016-07-28 12:26:00,
2016-07-28 05:36:00,55.8,43.4,29.92,SW,218,0.0,0.0,63,0.00,,---,0.00,VWS V14.01,2016-07-28 12:36:00,
2016-07-28 05:46:00,55.6,43.6,29.92,SW,219,0.0,0.0,64,0.00,,---,0.00,VWS V14.01,2016-07-28 12:46:00,
2016-07-28 05:56:00,55.4,43.4,29.92,SW,218,0.0,0.0,64,0.00,,---,0.00,VWS V14.01,2016-07-28 12:56:00,
2016-07-28 06:06:00,55.2,43.2,29.93,SW,218,0.0,0.0,64,0.00,,---,0.00,VWS V14.01,2016-07-28 13:06:00,
2016-07-28 06:16:00,55.1,43.2,29.95,SW,217,0.0,0.0,64,0.00,,---,0.00,VWS V14.01,2016-07-28 13:16:00,
2016-07-28 06:26:00,55.0,43.1,29.95,SW,219,0.0,0.0,64,0.00,,---,0.00,VWS V14.01,2016-07-28 13:26:00,
2016-07-28 06:36:00,54.9,43.4,29.95,SW,218,0.0,0.0,65,0.00,,---,0.00,VWS V14.01,2016-07-28 13:36:00,
2016-07-28 06:46:00,55.0,43.5,29.95,SW,217,0.0,0.0,65,0.00,,---,0.00,VWS V14.01,2016-07-28 13:46:00,
2016-07-28 06:56:00,55.1,44.0,29.96,SW,218,0.0,0.0,66,0.00,,---,0.00,VWS V14.01,2016-07-28 13:56:00,
2016-07-28 07:06:00,55.3,44.5,29.95,SW,218,0.0,0.0,67,0.00,,---,0.00,VWS V14.01,2016-07-28 14:06:00,
2016-07-28 07:16:00,55.4,44.6,29.98,SW,218,0.0,0.0,67,0.00,,---,0.00,VWS V14.01,2016-07-28 14:16:00,
2016-07-28 07:26:00,55.6,44.4,29.98,SW,218,0.0,0.0,66,0.00,,---,0.00,VWS V14.01,2016-07-28 14:26:00,
2016-07-28 07:36:00,56.0,45.2,29.98,SW,218,0.0,0.0,67,0.00,,---,0.00,VWS V14.01,2016-07-28 14:36:00,
2016-07-28 07:46:00,56.6,45.8,29.98,SW,218,0.0,0.0,67,0.00,,---,0.00,VWS V14.01,2016-07-28 14:46:00,
2016-07-28 07:56:00,57.1,46.7,29.98,SW,218,0.0,0.0,68,0.00,,---,0.00,VWS V14.01,2016-07-28 14:56:00,
2016-07-28 08:06:00,57.9,47.0,30.00,SW,218,0.0,0.0,67,0.00,,---,0.00,VWS V14.01,2016-07-28 15:06:00,
2016-07-28 08:16:00,58.6,47.7,29.99,SW,219,0.0,0.0,67,0.00,,---,0.00,VWS V14.01,2016-07-28 15:16:00,
2016-07-28 08:26:00,59.2,49.0,29.99,SW,219,0.0,0.0,69,0.00,,---,0.00,VWS V14.01,2016-07-28 15:26:00,
2016-07-28 08:36:00,61.6,50.1,29.97,North,360,0.0,0.0,66,0.00,,---,0.00,VWS V14.01,2016-07-28 15:36:00,
2016-07-28 08:46:00,63.1,50.7,29.98,SW,219,0.0,0.0,64,0.00,,---,0.00,VWS V14.01,2016-07-28 15:46:00,
2016-07-28 08:56:00,63.9,52.3,29.96,SW,218,0.0,0.0,66,0.00,,---,0.00,VWS V14.01,2016-07-28 15:56:00,
2016-07-28 09:06:00,64.5,52.1,29.98,SW,217,0.0,0.0,64,0.00,,---,0.00,VWS V14.01,2016-07-28 16:06:00,
2016-07-28 09:16:00,64.8,52.3,29.98,SW,218,0.0,0.0,64,0.00,,---,0.00,VWS V14.01,2016-07-28 16:16:00,
2016-07-28 09:26:00,65.0,52.5,29.98,SW,219,0.0,0.0,64,0.00,,---,0.00,VWS V14.01,2016-07-28 16:26:00,
2016-07-28 09:36:00,65.5,53.0,29.98,SW,218,0.0,0.0,64,0.00,,---,0.00,VWS V14.01,2016-07-28 16:36:00,
2016-07-28 09:46:00,66.0,53.1,29.97,SW,219,0.0,0.0,63,0.00,,---,0.00,VWS V14.01,2016-07-28 16:46:00,
2016-07-28 09:56:00,66.5,53.5,29.96,SW,218,0.0,0.0,63,0.00,,---,0.00,VWS V14.01,2016-07-28 16:56:00,
2016-07-28 10:06:00,67.2,53.8,29.97,SW,217,0.0,0.0,62,0.00,,---,0.00,VWS V14.01,2016-07-28 17:06:00,
2016-07-28 10:16:00,67.7,53.3,29.97,SW,219,0.0,0.0,60,0.00,,---,0.00,VWS V14.01,2016-07-28 17:16:00,
2016-07-28 10:26:00,68.2,55.1,29.96,SW,218,0.0,0.0,63,0.00,,---,0.00,VWS V14.01,2016-07-28 17:26:00,
2016-07-28 10:36:00,68.4,53.5,29.96,SW,217,0.0,0.0,59,0.00,,---,0.00,VWS V14.01,2016-07-28 17:36:00,
2016-07-28 10:46:00,68.8,54.8,29.95,North,360,0.0,0.0,61,0.00,,---,0.00,VWS V14.01,2016-07-28 17:46:00,
2016-07-28 10:56:00,69.3,54.8,29.95,SW,219,0.0,0.0,60,0.00,,---,0.00,VWS V14.01,2016-07-28 17:56:00,
2016-07-28 11:06:00,69.9,54.9,29.96,SW,218,0.0,0.0,59,0.00,,---,0.00,VWS V14.01,2016-07-28 18:06:00,
2016-07-28 11:16:00,70.4,55.4,29.96,SW,219,0.0,0.0,59,0.00,,---,0.00,VWS V14.01,2016-07-28 18:16:00,
2016-07-28 11:26:00,71.0,55.5,29.96,SW,219,0.0,0.0,58,0.00,,---,0.00,VWS V14.01,2016-07-28 18:26:00,
2016-07-28 11:36:00,72.0,55.0,29.95,SW,218,0.0,0.0,55,0.00,,---,0.00,VWS V14.01,2016-07-28 18:36:00,
2016-07-28 11:46:00,73.2,54.5,29.95,SW,218,0.0,0.0,52,0.00,,---,0.00,VWS V14.01,2016-07-28 18:46:00,
2016-07-28 12:06:00,75.1,55.2,29.94,SW,218,0.0,0.0,50,0.00,,---,0.00,VWS V14.01,2016-07-28 19:06:00,
2016-07-28 12:16:00,75.9,54.2,29.93,SW,219,0.0,0.0,47,0.00,,---,0.00,VWS V14.01,2016-07-28 19:16:00,
2016-07-28 12:26:00,77.1,55.9,29.92,SW,217,0.0,0.0,48,0.00,,---,0.00,VWS V14.01,2016-07-28 19:26:00,